Time;durP1;ratioP1;P1;durP2;ratioP2;P2;SDS_P1;SDS_P2;PMS_P1;PMS_P2;Temp;Humidity;BMP_temperature;BMP_pressure;BME280_temperature;BME280_humidity;BME280_pressure;Samples;Min_cycle;Max_cycle;Signal;HPM_P1;HPM_P2
2020/04/03 00:02:22;;;;;;;172.11;158.46;;;;;;;19.67;29.97;100221.73;;;;-47
2020/04/03 00:11:48;;;;;;;153.02;141.17;;;;;;;19.62;29.94;100223.05;;;;-48
2020/04/03 00:15:49;;;;;;;137.56;127.14;;;;;;;19.60;29.99;100219.88;;;;-47
2020/04/03 00:18:48;;;;;;;138.35;127.82;;;;;;;19.59;29.99;100215.76;;;;-47
2020/04/03 00:21:48;;;;;;;143.75;132.75;;;;;;;19.58;29.99;100217.06;;;;-47
2020/04/03 00:24:48;;;;;;;127.28;117.67;;;;;;;19.58;30.01;100217.89;;;;-47
2020/04/03 00:27:48;;;;;;;151.47;139.64;;;;;;;19.55;30.02;100212.31;;;;-47
2020/04/03 00:30:55;;;;;;;153.05;141.10;;;;;;;19.55;30.03;100215.50;;;;-47
2020/04/03 00:34:02;;;;;;;147.45;136.04;;;;;;;19.54;30.02;100215.96;;;;-47
2020/04/03 00:36:49;;;;;;;141.45;130.65;;;;;;;19.52;30.03;100215.05;;;;-47
2020/04/03 00:39:48;;;;;;;128.21;118.67;;;;;;;19.51;30.08;100215.84;;;;-47
2020/04/03 00:42:49;;;;;;;148.71;137.28;;;;;;;19.50;30.06;100220.86;;;;-47
2020/04/03 00:45:48;;;;;;;147.99;136.53;;;;;;;19.50;30.04;100220.16;;;;-48
2020/04/03 00:48:48;;;;;;;139.97;129.25;;;;;;;19.48;30.04;100217.83;;;;-47
2020/04/03 00:51:48;;;;;;;144.16;133.13;;;;;;;19.47;30.06;100217.34;;;;-47
2020/04/03 00:54:48;;;;;;;139.41;128.77;;;;;;;19.46;30.10;100219.59;;;;-48
2020/04/03 00:57:48;;;;;;;130.57;120.72;;;;;;;19.44;30.11;100221.11;;;;-47
2020/04/03 01:00:48;;;;;;;129.61;119.83;;;;;;;19.43;30.09;100224.09;;;;-47
2020/04/03 01:03:48;;;;;;;142.73;131.80;;;;;;;19.42;30.10;100224.95;;;;-48
2020/04/03 01:06:48;;;;;;;129.00;119.26;;;;;;;19.41;30.15;100229.16;;;;-47
2020/04/03 01:09:48;;;;;;;139.35;128.62;;;;;;;19.39;30.15;100230.29;;;;-47
2020/04/03 01:12:49;;;;;;;148.34;136.86;;;;;;;19.40;30.13;100237.99;;;;-47
2020/04/03 01:16:48;;;;;;;128.57;119.00;;;;;;;19.38;30.10;100244.45;;;;-47
2020/04/03 01:20:48;;;;;;;150.03;138.38;;;;;;;19.35;30.16;100239.23;;;;-48
2020/04/03 01:23:48;;;;;;;170.22;156.65;;;;;;;19.35;30.11;100239.56;;;;-47
2020/04/03 01:26:48;;;;;;;151.87;140.01;;;;;;;19.33;30.17;100242.09;;;;-47
2020/04/03 01:30:48;;;;;;;130.16;120.28;;;;;;;19.32;30.17;100241.32;;;;-47
2020/04/03 01:33:48;;;;;;;105.95;98.19;;;;;;;19.31;30.17;100236.55;;;;-48
2020/04/03 01:36:48;;;;;;;130.30;120.51;;;;;;;19.30;30.17;100238.02;;;;-48
2020/04/03 01:39:48;;;;;;;138.79;128.09;;;;;;;19.30;30.16;100243.14;;;;-47
2020/04/03 01:42:49;;;;;;;138.61;128.04;;;;;;;19.28;30.19;100243.46;;;;-47
2020/04/03 01:45:48;;;;;;;138.79;128.22;;;;;;;19.26;30.21;100245.33;;;;-47
2020/04/03 01:48:48;;;;;;;139.35;128.73;;;;;;;19.26;30.17;100243.41;;;;-48
2020/04/03 01:51:48;;;;;;;142.01;131.13;;;;;;;19.25;30.20;100242.36;;;;-47
2020/04/03 01:54:48;;;;;;;148.21;136.76;;;;;;;19.24;30.17;100242.16;;;;-47
2020/04/03 01:57:48;;;;;;;138.53;127.99;;;;;;;19.23;30.22;100241.18;;;;-47
2020/04/03 02:00:48;;;;;;;158.44;145.89;;;;;;;19.22;30.20;100246.83;;;;-47
2020/04/03 02:04:48;;;;;;;150.80;139.16;;;;;;;19.21;30.22;100241.70;;;;-47
2020/04/03 02:08:48;;;;;;;231.39;212.53;;;;;;;19.20;30.22;100254.61;;;;-47
2020/04/03 02:11:48;;;;;;;206.11;189.49;;;;;;;19.19;30.24;100253.06;;;;-48
2020/04/03 02:14:48;;;;;;;230.51;211.81;;;;;;;19.18;30.22;100260.78;;;;-47
2020/04/03 02:17:48;;;;;;;221.16;203.35;;;;;;;19.18;30.27;100274.61;;;;-47
2020/04/03 02:20:49;;;;;;;219.18;201.49;;;;;;;19.16;30.26;100282.59;;;;-48
2020/04/03 02:23:48;;;;;;;235.89;216.70;;;;;;;19.16;30.24;100284.47;;;;-48
2020/04/03 02:26:48;;;;;;;228.89;210.33;;;;;;;19.15;30.26;100288.37;;;;-47
2020/04/03 02:29:48;;;;;;;257.61;236.39;;;;;;;19.14;30.27;100290.52;;;;-47
2020/04/03 02:32:48;;;;;;;260.49;238.93;;;;;;;19.13;30.28;100293.85;;;;-48
2020/04/03 02:35:48;;;;;;;238.12;218.67;;;;;;;19.12;30.29;100296.42;;;;-47
2020/04/03 02:38:48;;;;;;;182.41;168.01;;;;;;;19.11;30.23;100300.05;;;;-47
2020/04/03 02:41:48;;;;;;;219.17;201.58;;;;;;;19.10;30.25;100301.63;;;;-47
2020/04/03 02:44:49;;;;;;;265.07;243.38;;;;;;;19.09;30.30;100295.72;;;;-47
2020/04/03 02:47:48;;;;;;;279.61;256.37;;;;;;;19.08;30.32;100298.69;;;;-47
2020/04/03 02:50:48;;;;;;;286.17;262.26;;;;;;;19.08;30.29;100300.53;;;;-47
2020/04/03 02:53:48;;;;;;;269.17;247.03;;;;;;;19.07;30.32;100302.16;;;;-47
2020/04/03 02:56:48;;;;;;;255.98;235.05;;;;;;;19.06;30.32;100303.86;;;;-47
2020/04/03 02:59:48;;;;;;;294.62;269.93;;;;;;;19.05;30.33;100304.81;;;;-47
2020/04/03 03:02:48;;;;;;;289.81;265.66;;;;;;;19.05;30.33;100304.41;;;;-47
2020/04/03 03:05:48;;;;;;;300.85;275.55;;;;;;;19.03;30.29;100305.66;;;;-48
2020/04/03 03:08:48;;;;;;;303.70;278.15;;;;;;;19.03;30.30;100304.66;;;;-47
2020/04/03 03:11:48;;;;;;;311.74;285.21;;;;;;;19.02;30.32;100308.63;;;;-48
2020/04/03 03:14:48;;;;;;;295.02;270.40;;;;;;;19.00;30.35;100300.69;;;;-47
2020/04/03 03:17:48;;;;;;;269.41;247.23;;;;;;;18.99;30.38;100301.41;;;;-47
2020/04/03 03:20:48;;;;;;;295.85;271.11;;;;;;;18.99;30.33;100300.97;;;;-48
2020/04/03 03:23:48;;;;;;;274.89;252.17;;;;;;;18.99;30.34;100306.66;;;;-47
2020/04/03 03:26:48;;;;;;;261.24;239.92;;;;;;;18.96;30.39;100308.14;;;;-47
2020/04/03 03:29:48;;;;;;;274.63;252.03;;;;;;;18.96;30.32;100311.82;;;;-47
2020/04/03 03:32:48;;;;;;;260.92;239.41;;;;;;;18.96;30.37;100313.66;;;;-47
2020/04/03 03:35:48;;;;;;;280.32;257.09;;;;;;;18.95;30.39;100310.77;;;;-47
2020/04/03 03:38:48;;;;;;;261.63;240.20;;;;;;;18.95;30.38;100312.71;;;;-47
2020/04/03 03:41:48;;;;;;;280.52;257.15;;;;;;;18.95;30.43;100312.78;;;;-48
2020/04/03 03:44:48;;;;;;;260.35;239.01;;;;;;;18.96;30.44;100314.73;;;;-47
2020/04/03 03:47:48;;;;;;;273.19;250.71;;;;;;;18.97;30.43;100317.28;;;;-47
2020/04/03 03:50:48;;;;;;;266.77;244.72;;;;;;;18.98;30.43;100319.00;;;;-47
2020/04/03 03:53:48;;;;;;;278.42;255.31;;;;;;;19.01;30.43;100322.08;;;;-47
2020/04/03 03:56:48;;;;;;;248.25;227.99;;;;;;;19.01;30.48;100322.09;;;;-47
2020/04/03 03:59:48;;;;;;;250.39;229.98;;;;;;;19.05;30.42;100329.29;;;;-47
2020/04/03 04:02:48;;;;;;;255.57;234.63;;;;;;;19.09;30.38;100331.77;;;;-47
2020/04/03 04:05:48;;;;;;;255.21;234.40;;;;;;;19.12;30.38;100330.50;;;;-47
2020/04/03 04:08:48;;;;;;;262.50;241.05;;;;;;;19.17;30.38;100340.25;;;;-47
2020/04/03 04:11:48;;;;;;;247.71;227.48;;;;;;;19.20;30.37;100340.59;;;;-47
2020/04/03 04:14:48;;;;;;;280.73;257.37;;;;;;;19.24;30.40;100343.11;;;;-47
2020/04/03 04:17:48;;;;;;;285.65;261.94;;;;;;;19.28;30.43;100343.86;;;;-47
2020/04/03 04:20:48;;;;;;;251.45;230.75;;;;;;;19.31;30.46;100346.94;;;;-47
2020/04/03 04:23:48;;;;;;;274.52;252.00;;;;;;;19.36;30.46;100347.01;;;;-47
2020/04/03 04:26:48;;;;;;;283.21;259.66;;;;;;;19.39;30.47;100346.84;;;;-47
2020/04/03 04:29:48;;;;;;;256.27;235.27;;;;;;;19.43;30.47;100346.17;;;;-47
2020/04/03 04:32:48;;;;;;;238.43;218.95;;;;;;;19.46;30.50;100351.80;;;;-47
2020/04/03 04:35:48;;;;;;;250.85;230.33;;;;;;;19.49;30.44;100354.81;;;;-47
2020/04/03 04:38:48;;;;;;;253.53;232.86;;;;;;;19.52;30.44;100355.57;;;;-47
2020/04/03 04:41:48;;;;;;;193.83;178.37;;;;;;;19.55;30.45;100354.35;;;;-47
2020/04/03 04:44:59;;;;;;;190.09;174.97;;;;;;;19.57;30.46;100349.52;;;;-47
2020/04/03 04:47:48;;;;;;;200.27;184.23;;;;;;;19.60;30.47;100351.16;;;;-47
2020/04/03 04:50:48;;;;;;;158.21;145.91;;;;;;;19.63;30.50;100354.77;;;;-47
2020/04/03 04:53:48;;;;;;;199.08;183.13;;;;;;;19.66;30.53;100350.47;;;;-47
2020/04/03 04:56:48;;;;;;;181.45;167.07;;;;;;;19.69;30.48;100355.75;;;;-48
2020/04/03 04:59:48;;;;;;;158.99;146.68;;;;;;;19.71;30.48;100356.70;;;;-47
2020/04/03 05:02:48;;;;;;;173.03;159.45;;;;;;;19.73;30.48;100364.94;;;;-47
2020/04/03 05:05:48;;;;;;;162.07;149.45;;;;;;;19.77;30.45;100363.89;;;;-47
2020/04/03 05:08:48;;;;;;;176.36;162.46;;;;;;;19.79;30.45;100361.63;;;;-48
2020/04/03 05:11:48;;;;;;;175.43;161.67;;;;;;;19.82;30.42;100369.73;;;;-47
2020/04/03 05:14:48;;;;;;;178.79;164.56;;;;;;;19.84;30.44;100378.27;;;;-47
2020/04/03 05:17:48;;;;;;;191.43;176.23;;;;;;;19.87;30.46;100379.39;;;;-48
2020/04/03 05:20:48;;;;;;;180.38;166.09;;;;;;;19.89;30.41;100378.54;;;;-47
2020/04/03 05:23:48;;;;;;;186.46;171.64;;;;;;;19.91;30.44;100383.91;;;;-47
2020/04/03 05:26:48;;;;;;;181.67;167.26;;;;;;;19.93;30.37;100386.12;;;;-47
2020/04/03 05:29:48;;;;;;;177.28;163.18;;;;;;;19.97;30.33;100389.09;;;;-47
2020/04/03 05:32:48;;;;;;;194.61;179.11;;;;;;;20.00;30.34;100391.00;;;;-47
2020/04/03 05:35:48;;;;;;;179.55;165.27;;;;;;;20.01;30.30;100400.03;;;;-47
2020/04/03 05:38:48;;;;;;;196.27;180.64;;;;;;;20.02;30.30;100406.16;;;;-47
2020/04/03 05:41:48;;;;;;;166.23;153.13;;;;;;;20.02;30.29;100411.97;;;;-47
2020/04/03 05:44:48;;;;;;;165.43;152.52;;;;;;;20.06;30.26;100424.47;;;;-47
2020/04/03 05:47:48;;;;;;;182.67;168.19;;;;;;;20.09;30.30;100428.52;;;;-47
2020/04/03 05:50:48;;;;;;;193.81;178.24;;;;;;;20.09;30.21;100436.47;;;;-47
2020/04/03 05:53:48;;;;;;;204.99;188.55;;;;;;;20.11;30.23;100431.78;;;;-48
2020/04/03 05:56:48;;;;;;;211.41;194.55;;;;;;;20.13;30.24;100433.45;;;;-47
2020/04/03 05:59:48;;;;;;;182.62;168.01;;;;;;;20.16;30.18;100434.01;;;;-47
2020/04/03 06:02:48;;;;;;;179.97;165.67;;;;;;;20.17;30.20;100430.09;;;;-48
2020/04/03 06:05:48;;;;;;;200.33;184.36;;;;;;;20.20;30.17;100439.94;;;;-48
2020/04/03 06:08:48;;;;;;;184.87;170.07;;;;;;;20.21;30.08;100437.97;;;;-47
2020/04/03 06:11:48;;;;;;;188.79;173.67;;;;;;;20.23;30.15;100436.54;;;;-47
2020/04/03 06:14:48;;;;;;;191.65;176.27;;;;;;;20.24;30.08;100441.34;;;;-48
2020/04/03 06:17:48;;;;;;;182.93;168.48;;;;;;;20.25;30.10;100444.50;;;;-47
2020/04/03 06:20:48;;;;;;;168.10;154.91;;;;;;;20.27;30.09;100445.02;;;;-47
2020/04/03 06:23:48;;;;;;;158.65;146.41;;;;;;;20.31;30.04;100443.87;;;;-48
2020/04/03 06:26:48;;;;;;;147.29;136.02;;;;;;;20.30;30.02;100445.95;;;;-47
2020/04/03 06:29:48;;;;;;;149.89;138.31;;;;;;;20.32;30.08;100449.72;;;;-48
2020/04/03 06:32:48;;;;;;;164.33;151.50;;;;;;;20.34;30.00;100449.57;;;;-47
2020/04/03 06:35:48;;;;;;;151.45;139.73;;;;;;;20.35;29.98;100447.77;;;;-47
2020/04/03 06:38:48;;;;;;;152.68;140.92;;;;;;;20.37;29.99;100446.84;;;;-48
2020/04/03 06:41:48;;;;;;;154.43;142.54;;;;;;;20.39;29.95;100444.75;;;;-47
2020/04/03 06:44:48;;;;;;;163.74;150.93;;;;;;;20.40;29.99;100447.87;;;;-47
2020/04/03 06:47:48;;;;;;;161.19;148.69;;;;;;;20.41;29.92;100445.39;;;;-47
2020/04/03 06:50:48;;;;;;;154.38;142.49;;;;;;;20.43;29.89;100454.20;;;;-47
2020/04/03 06:53:48;;;;;;;168.89;155.59;;;;;;;20.44;29.91;100451.89;;;;-48
2020/04/03 06:56:48;;;;;;;156.15;144.03;;;;;;;20.44;29.90;100445.91;;;;-47
2020/04/03 06:59:48;;;;;;;170.71;157.25;;;;;;;20.43;29.80;100439.94;;;;-48
2020/04/03 07:02:48;;;;;;;168.25;154.99;;;;;;;20.44;29.87;100450.28;;;;-47
2020/04/03 07:05:48;;;;;;;156.19;144.07;;;;;;;20.43;29.84;100461.01;;;;-48
2020/04/03 07:08:48;;;;;;;164.43;151.61;;;;;;;20.44;29.88;100468.83;;;;-47
2020/04/03 07:11:48;;;;;;;157.76;145.51;;;;;;;20.44;29.78;100467.33;;;;-48
2020/04/03 07:14:48;;;;;;;163.08;150.24;;;;;;;20.44;29.83;100475.94;;;;-48
2020/04/03 07:17:48;;;;;;;152.01;140.29;;;;;;;20.46;29.83;100480.66;;;;-48
2020/04/03 07:20:48;;;;;;;159.54;147.01;;;;;;;20.44;29.80;100485.20;;;;-48
2020/04/03 07:23:48;;;;;;;160.36;147.83;;;;;;;20.45;29.77;100481.28;;;;-49
2020/04/03 07:26:48;;;;;;;164.55;151.55;;;;;;;20.38;29.25;100482.50;;;;-45
2020/04/03 07:29:48;;;;;;;155.39;143.29;;;;;;;20.34;28.54;100482.18;;;;-45
2020/04/03 07:32:48;;;;;;;138.39;127.93;;;;;;;20.32;28.82;100485.45;;;;-50
2020/04/03 07:35:48;;;;;;;159.55;146.89;;;;;;;20.31;29.16;100492.72;;;;-51
2020/04/03 07:38:48;;;;;;;134.85;124.16;;;;;;;20.31;29.51;100504.19;;;;-51
2020/04/03 07:41:48;;;;;;;144.87;133.68;;;;;;;20.30;29.45;100504.48;;;;-52
2020/04/03 07:44:48;;;;;;;158.79;146.27;;;;;;;20.30;29.29;100507.10;;;;-50
2020/04/03 07:47:48;;;;;;;150.23;138.24;;;;;;;20.32;29.60;100513.79;;;;-50
2020/04/03 07:50:48;;;;;;;147.03;135.45;;;;;;;20.33;29.39;100514.67;;;;-50
2020/04/03 07:53:48;;;;;;;124.53;114.94;;;;;;;20.36;29.46;100517.15;;;;-50
2020/04/03 07:56:48;;;;;;;133.81;123.51;;;;;;;20.36;29.30;100521.17;;;;-50
2020/04/03 07:59:48;;;;;;;136.51;126.10;;;;;;;20.38;29.51;100514.66;;;;-50
2020/04/03 08:02:48;;;;;;;141.12;130.20;;;;;;;20.39;29.28;100518.78;;;;-51
2020/04/03 08:05:48;;;;;;;140.89;130.13;;;;;;;20.39;29.24;100519.12;;;;-50
2020/04/03 08:08:48;;;;;;;149.99;138.33;;;;;;;20.42;29.36;100523.09;;;;-50
2020/04/03 08:11:48;;;;;;;136.85;126.53;;;;;;;20.43;29.34;100518.78;;;;-50
2020/04/03 08:14:48;;;;;;;89.11;82.60;;;;;;;20.43;29.29;100526.16;;;;-50
2020/04/03 08:20:48;;;;;;;132.03;122.09;;;;;;;20.48;30.26;100541.20;;;;-47
2020/04/03 08:23:48;;;;;;;144.87;133.71;;;;;;;20.53;30.27;100546.98;;;;-55
2020/04/03 08:26:48;;;;;;;105.95;98.06;;;;;;;20.54;29.73;100544.17;;;;-56
2020/04/03 08:29:48;;;;;;;100.76;93.30;;;;;;;20.59;30.15;100542.06;;;;-58
2020/04/03 08:32:48;;;;;;;107.92;99.89;;;;;;;20.61;30.30;100545.16;;;;-58
2020/04/03 08:35:48;;;;;;;87.85;81.30;;;;;;;20.62;30.13;100549.50;;;;-57
2020/04/03 08:38:48;;;;;;;86.53;80.07;;;;;;;20.65;29.98;100558.41;;;;-51
2020/04/03 08:41:48;;;;;;;86.13;79.70;;;;;;;20.66;30.19;100558.45;;;;-57
2020/04/03 08:44:48;;;;;;;85.26;78.93;;;;;;;20.69;30.24;100560.76;;;;-52
2020/04/03 08:47:48;;;;;;;85.06;78.79;;;;;;;20.72;30.48;100566.92;;;;-51
2020/04/03 08:50:48;;;;;;;81.51;75.35;;;;;;;20.73;30.48;100570.72;;;;-50
2020/04/03 08:53:48;;;;;;;70.31;64.91;;;;;;;20.76;30.63;100576.09;;;;-49
2020/04/03 08:56:48;;;;;;;84.77;77.89;;;;;;;20.74;29.89;100580.09;;;;-49
2020/04/03 08:59:48;;;;;;;83.47;77.25;;;;;;;20.74;29.74;100580.67;;;;-50
2020/04/03 09:02:48;;;;;;;71.09;65.73;;;;;;;20.74;29.59;100583.02;;;;-50
2020/04/03 09:05:48;;;;;;;87.03;80.51;;;;;;;20.72;29.53;100582.20;;;;-49
2020/04/03 09:08:48;;;;;;;84.67;78.43;;;;;;;20.72;29.50;100585.55;;;;-50
2020/04/03 09:11:48;;;;;;;76.00;70.31;;;;;;;20.72;29.60;100587.73;;;;-49
2020/04/03 09:14:48;;;;;;;70.74;65.41;;;;;;;20.73;29.49;100588.11;;;;-49
2020/04/03 09:17:48;;;;;;;78.63;72.78;;;;;;;20.72;29.64;100589.42;;;;-49
2020/04/03 09:20:48;;;;;;;65.39;60.39;;;;;;;20.72;29.44;100583.20;;;;-50
2020/04/03 09:23:48;;;;;;;69.49;64.26;;;;;;;20.73;29.50;100588.02;;;;-49
2020/04/03 09:26:48;;;;;;;71.95;66.50;;;;;;;20.72;29.50;100586.39;;;;-46
2020/04/03 09:29:48;;;;;;;96.30;89.16;;;;;;;20.72;29.38;100589.81;;;;-46
2020/04/03 09:32:48;;;;;;;104.13;96.41;;;;;;;20.73;29.29;100585.77;;;;-46
2020/04/03 09:36:48;;;;;;;109.23;101.08;;;;;;;20.72;29.41;100585.63;;;;-46
2020/04/03 09:41:48;;;;;;;104.86;97.13;;;;;;;20.73;29.38;100583.65;;;;-46
2020/04/03 09:44:48;;;;;;;113.69;105.27;;;;;;;20.74;29.30;100582.34;;;;-45
2020/04/03 09:47:48;;;;;;;118.95;109.96;;;;;;;20.75;29.58;100582.48;;;;-47
2020/04/03 09:50:48;;;;;;;109.13;101.00;;;;;;;20.76;29.53;100585.28;;;;-46
2020/04/03 09:53:48;;;;;;;122.64;113.41;;;;;;;20.77;29.35;100591.03;;;;-46
2020/04/03 09:56:48;;;;;;;110.58;102.39;;;;;;;20.77;29.27;100593.72;;;;-46
2020/04/03 09:59:48;;;;;;;112.05;103.71;;;;;;;20.78;29.43;100594.87;;;;-47
2020/04/03 10:02:48;;;;;;;113.14;104.77;;;;;;;20.77;29.30;100594.56;;;;-47
2020/04/03 10:05:48;;;;;;;129.25;119.33;;;;;;;20.79;29.30;100597.70;;;;-45
2020/04/03 10:08:48;;;;;;;120.24;111.10;;;;;;;20.82;29.76;100600.03;;;;-47
2020/04/03 10:11:48;;;;;;;126.30;114.89;;;;;;;20.86;30.09;100603.52;;;;-49
2020/04/03 10:14:48;;;;;;;142.85;131.66;;;;;;;20.87;30.10;100596.34;;;;-54
2020/04/03 10:17:49;;;;;;;125.29;115.37;;;;;;;20.92;30.39;100594.97;;;;-49
2020/04/03 10:20:48;;;;;;;132.87;122.62;;;;;;;20.93;30.01;100593.51;;;;-47
2020/04/03 10:23:48;;;;;;;127.03;117.33;;;;;;;20.97;30.59;100591.82;;;;-50
2020/04/03 10:26:48;;;;;;;132.85;122.58;;;;;;;20.98;30.47;100589.75;;;;-50
2020/04/03 10:29:48;;;;;;;169.47;155.79;;;;;;;20.98;29.85;100587.80;;;;-44
2020/04/03 10:32:48;;;;;;;165.65;152.42;;;;;;;20.99;29.82;100588.84;;;;-48
2020/04/03 10:35:48;;;;;;;256.73;235.28;;;;;;;21.02;30.07;100585.30;;;;-49
2020/04/03 10:38:48;;;;;;;301.09;275.31;;;;;;;21.04;30.31;100578.36;;;;-45
2020/04/03 10:41:48;;;;;;;287.29;263.55;;;;;;;21.05;30.50;100580.42;;;;-47
2020/04/03 10:45:48;;;;;;;353.92;323.26;;;;;;;21.10;30.51;100582.80;;;;-48
2020/04/03 10:49:48;;;;;;;339.15;310.23;;;;;;;21.05;29.76;100580.89;;;;-48
2020/04/03 10:52:48;;;;;;;339.62;310.60;;;;;;;21.04;29.57;100579.64;;;;-47
2020/04/03 10:55:48;;;;;;;325.41;297.77;;;;;;;21.03;29.32;100577.19;;;;-47
2020/04/03 10:58:48;;;;;;;329.19;301.11;;;;;;;21.01;29.39;100573.23;;;;-47
2020/04/03 11:01:48;;;;;;;326.49;298.93;;;;;;;21.00;29.33;100570.08;;;;-47
2020/04/03 11:04:48;;;;;;;330.89;302.81;;;;;;;21.00;29.30;100567.66;;;;-47
2020/04/03 11:07:48;;;;;;;324.45;296.71;;;;;;;20.98;29.26;100568.76;;;;-47
2020/04/03 11:10:48;;;;;;;333.82;305.23;;;;;;;20.98;29.42;100565.63;;;;-47
2020/04/03 11:13:48;;;;;;;327.61;299.70;;;;;;;20.98;29.21;100566.41;;;;-48
2020/04/03 11:16:48;;;;;;;304.50;278.96;;;;;;;20.97;29.29;100565.36;;;;-47
2020/04/03 11:19:48;;;;;;;326.71;298.98;;;;;;;20.96;29.43;100565.66;;;;-47
2020/04/03 11:22:48;;;;;;;326.58;298.97;;;;;;;20.95;29.44;100563.94;;;;-47
2020/04/03 11:25:48;;;;;;;317.91;291.13;;;;;;;20.93;29.25;100558.08;;;;-48
2020/04/03 11:29:14;;;;;;;309.89;283.92;;;;;;;20.94;29.23;100557.84;;;;-47
2020/04/03 11:31:48;;;;;;;304.25;278.63;;;;;;;20.93;29.12;100560.06;;;;-48
2020/04/03 11:36:48;;;;;;;343.47;313.87;;;;;;;20.93;29.80;100556.57;;;;-48
2020/04/03 11:39:48;;;;;;;337.05;308.05;;;;;;;20.95;30.23;100550.50;;;;-48
2020/04/03 11:42:48;;;;;;;318.87;291.87;;;;;;;20.95;30.27;100556.82;;;;-47
2020/04/03 11:45:49;;;;;;;330.36;302.15;;;;;;;20.96;30.42;100554.97;;;;-45
2020/04/03 11:48:48;;;;;;;326.78;298.79;;;;;;;20.97;30.15;100556.73;;;;-45
2020/04/03 11:51:49;;;;;;;316.92;290.00;;;;;;;20.98;30.90;100554.59;;;;-45
2020/04/03 11:54:48;;;;;;;328.19;300.25;;;;;;;21.00;30.95;100556.91;;;;-47
2020/04/03 11:57:48;;;;;;;327.71;299.30;;;;;;;20.99;30.88;100556.20;;;;-49
2020/04/03 12:00:49;;;;;;;305.80;280.19;;;;;;;20.98;30.18;100553.71;;;;-50
2020/04/03 12:03:48;;;;;;;294.77;270.15;;;;;;;20.98;30.33;100559.52;;;;-49
2020/04/03 12:06:48;;;;;;;258.77;237.73;;;;;;;20.98;29.94;100558.18;;;;-47
2020/04/03 12:09:48;;;;;;;257.37;236.55;;;;;;;21.00;30.58;100560.44;;;;-45
2020/04/03 12:12:49;;;;;;;281.15;257.67;;;;;;;21.00;30.00;100558.66;;;;-50
2020/04/03 12:15:48;;;;;;;276.23;253.43;;;;;;;21.01;30.49;100558.63;;;;-45
2020/04/03 12:18:48;;;;;;;269.27;246.97;;;;;;;21.03;31.04;100553.28;;;;-48
2020/04/03 12:21:48;;;;;;;253.59;232.91;;;;;;;21.02;30.33;100549.61;;;;-44
2020/04/03 12:24:48;;;;;;;271.80;249.15;;;;;;;21.03;30.50;100548.47;;;;-45
2020/04/03 12:27:49;;;;;;;258.79;237.44;;;;;;;21.00;29.88;100549.42;;;;-45
2020/04/03 12:30:48;;;;;;;257.17;236.19;;;;;;;20.95;29.83;100544.80;;;;-47
2020/04/03 12:33:48;;;;;;;261.07;239.35;;;;;;;20.97;30.17;100542.25;;;;-54
2020/04/03 12:36:48;;;;;;;259.31;238.28;;;;;;;20.99;30.58;100543.27;;;;-51
2020/04/03 12:39:48;;;;;;;263.25;241.85;;;;;;;21.01;30.67;100546.21;;;;-47
2020/04/03 12:42:48;;;;;;;283.71;260.33;;;;;;;21.03;30.70;100545.95;;;;-46
2020/04/03 12:45:48;;;;;;;279.42;256.57;;;;;;;21.05;30.86;100544.82;;;;-48
2020/04/03 12:48:48;;;;;;;263.14;241.40;;;;;;;21.06;30.64;100542.31;;;;-49
2020/04/03 12:51:51;;;;;;;266.67;244.70;;;;;;;21.06;30.30;100542.34;;;;-48
2020/04/03 12:54:49;;;;;;;306.73;280.85;;;;;;;21.06;30.40;100543.02;;;;-48
2020/04/03 12:57:48;;;;;;;289.44;264.99;;;;;;;21.05;30.24;100541.16;;;;-49
2020/04/03 13:00:49;;;;;;;262.57;240.62;;;;;;;21.02;30.14;100536.51;;;;-48
2020/04/03 13:03:49;;;;;;;243.73;223.57;;;;;;;21.05;30.16;100542.64;;;;-49
2020/04/03 13:06:50;;;;;;;250.17;229.56;;;;;;;21.04;30.18;100542.13;;;;-49
2020/04/03 13:09:49;;;;;;;288.93;264.69;;;;;;;21.05;30.20;100543.34;;;;-48
2020/04/03 13:12:51;;;;;;;246.77;226.28;;;;;;;21.03;30.06;100544.84;;;;-49
2020/04/03 13:15:48;;;;;;;249.93;229.25;;;;;;;21.03;30.12;100543.50;;;;-48
2020/04/03 13:18:49;;;;;;;243.14;223.11;;;;;;;21.02;29.95;100546.08;;;;-49
2020/04/03 13:21:50;;;;;;;237.95;218.34;;;;;;;21.02;30.07;100547.59;;;;-48
2020/04/03 13:24:49;;;;;;;243.77;223.81;;;;;;;21.00;30.02;100556.58;;;;-49
2020/04/03 13:27:49;;;;;;;235.89;216.49;;;;;;;21.00;30.05;100552.48;;;;-49
2020/04/03 13:30:48;;;;;;;233.99;214.82;;;;;;;20.99;30.03;100554.69;;;;-50
2020/04/03 13:33:48;;;;;;;251.65;230.85;;;;;;;20.99;30.09;100553.02;;;;-48
2020/04/03 13:36:48;;;;;;;243.46;223.19;;;;;;;20.99;30.14;100556.03;;;;-48
2020/04/03 13:39:48;;;;;;;254.09;233.05;;;;;;;20.98;30.13;100555.42;;;;-49
2020/04/03 13:42:49;;;;;;;246.47;226.05;;;;;;;20.98;30.17;100553.48;;;;-48
2020/04/03 13:45:48;;;;;;;238.60;218.94;;;;;;;20.98;30.12;100560.86;;;;-49
2020/04/03 13:48:49;;;;;;;231.97;212.89;;;;;;;20.98;30.05;100560.09;;;;-48
2020/04/03 13:51:48;;;;;;;238.82;219.27;;;;;;;20.98;30.14;100563.48;;;;-49
2020/04/03 13:54:48;;;;;;;243.59;222.79;;;;;;;21.03;30.58;100562.81;;;;-55
2020/04/03 13:57:48;;;;;;;238.56;219.30;;;;;;;21.05;30.85;100561.58;;;;-53
2020/04/03 14:00:48;;;;;;;251.89;231.50;;;;;;;21.09;30.98;100561.37;;;;-52
2020/04/03 14:03:48;;;;;;;226.19;208.03;;;;;;;21.14;31.02;100565.33;;;;-51
2020/04/03 14:06:48;;;;;;;230.39;211.89;;;;;;;21.15;31.18;100562.05;;;;-49
2020/04/03 14:09:48;;;;;;;257.23;236.27;;;;;;;21.16;31.28;100561.48;;;;-53
2020/04/03 14:12:48;;;;;;;223.33;205.33;;;;;;;21.18;31.03;100560.45;;;;-46
2020/04/03 14:15:48;;;;;;;223.35;205.43;;;;;;;21.20;31.35;100562.20;;;;-51
2020/04/03 14:19:48;;;;;;;223.93;205.76;;;;;;;21.20;31.20;100561.80;;;;-50
2020/04/03 14:22:50;;;;;;;234.55;215.08;;;;;;;21.17;30.84;100565.05;;;;-48
2020/04/03 14:25:48;;;;;;;250.75;230.21;;;;;;;21.17;30.98;100563.53;;;;-47
2020/04/03 14:28:48;;;;;;;214.73;196.87;;;;;;;21.16;30.80;100562.48;;;;-47
2020/04/03 14:31:49;;;;;;;235.16;215.77;;;;;;;21.18;30.49;100569.38;;;;-49
2020/04/03 14:34:48;;;;;;;228.97;210.43;;;;;;;21.17;30.31;100570.25;;;;-48
2020/04/03 14:37:48;;;;;;;239.75;220.17;;;;;;;21.19;30.75;100576.44;;;;-48
2020/04/03 14:40:48;;;;;;;255.73;234.74;;;;;;;21.20;30.40;100576.08;;;;-47
2020/04/03 14:43:48;;;;;;;278.67;255.45;;;;;;;21.19;30.47;100579.40;;;;-48
2020/04/03 14:46:48;;;;;;;277.95;254.65;;;;;;;21.19;30.43;100575.09;;;;-48
2020/04/03 14:49:49;;;;;;;293.03;267.99;;;;;;;21.14;29.94;100579.81;;;;-46
2020/04/03 14:52:48;;;;;;;281.89;258.02;;;;;;;21.15;29.86;100584.78;;;;-46
2020/04/03 14:55:48;;;;;;;284.32;260.13;;;;;;;21.14;30.35;100582.73;;;;-58
2020/04/03 14:58:48;;;;;;;269.77;247.35;;;;;;;21.15;30.56;100583.95;;;;-54
2020/04/03 15:01:48;;;;;;;269.53;247.33;;;;;;;21.15;30.58;100581.77;;;;-61
2020/04/03 15:04:48;;;;;;;284.90;261.23;;;;;;;21.17;30.64;100583.52;;;;-56
2020/04/03 15:07:48;;;;;;;279.98;256.69;;;;;;;21.19;30.77;100587.80;;;;-48
2020/04/03 15:10:48;;;;;;;275.62;252.73;;;;;;;21.19;30.77;100586.86;;;;-46
2020/04/03 15:13:48;;;;;;;283.44;259.81;;;;;;;21.21;30.55;100591.74;;;;-48
2020/04/03 15:16:48;;;;;;;242.71;222.76;;;;;;;21.24;30.75;100589.23;;;;-46
2020/04/03 15:19:48;;;;;;;275.26;252.49;;;;;;;21.26;30.68;100590.99;;;;-46
2020/04/03 15:22:48;;;;;;;288.38;264.23;;;;;;;21.27;30.81;100589.52;;;;-45
2020/04/03 15:25:48;;;;;;;285.94;261.94;;;;;;;21.28;30.86;100592.69;;;;-47
2020/04/03 15:28:48;;;;;;;308.71;282.59;;;;;;;21.31;30.78;100593.54;;;;-44
2020/04/03 15:31:48;;;;;;;326.22;298.32;;;;;;;21.31;30.70;100592.09;;;;-49
2020/04/03 15:34:48;;;;;;;346.23;316.23;;;;;;;21.32;30.93;100594.75;;;;-48
2020/04/03 15:37:48;;;;;;;361.92;330.35;;;;;;;21.33;30.86;100595.80;;;;-45
2020/04/03 15:40:48;;;;;;;331.83;303.39;;;;;;;21.32;30.88;100593.65;;;;-47
2020/04/03 15:44:49;;;;;;;380.74;346.73;;;;;;;21.33;30.94;100598.26;;;;-50
2020/04/03 15:47:48;;;;;;;363.42;331.74;;;;;;;21.34;30.85;100602.06;;;;-52
2020/04/03 15:50:48;;;;;;;378.43;344.93;;;;;;;21.34;30.83;100604.25;;;;-50
2020/04/03 15:53:48;;;;;;;383.68;349.77;;;;;;;21.34;30.71;100602.23;;;;-45
2020/04/03 15:56:48;;;;;;;368.87;336.61;;;;;;;21.33;30.69;100612.03;;;;-46
2020/04/03 15:59:48;;;;;;;373.30;340.58;;;;;;;21.34;30.81;100613.25;;;;-51
2020/04/03 16:02:48;;;;;;;346.91;316.89;;;;;;;21.33;30.87;100615.70;;;;-49
2020/04/03 16:05:48;;;;;;;353.11;322.33;;;;;;;21.33;30.65;100617.64;;;;-46
2020/04/03 16:08:48;;;;;;;371.19;338.61;;;;;;;21.33;30.93;100613.78;;;;-45
2020/04/03 16:11:48;;;;;;;378.45;345.03;;;;;;;21.33;30.95;100619.33;;;;-60
2020/04/03 16:14:48;;;;;;;341.11;311.76;;;;;;;21.33;30.76;100623.69;;;;-59